createdAt,value
2018-05-04T00:01:12.778Z,7.27
2018-05-04T00:03:40.899Z,9.47
2018-05-04T00:06:09.163Z,6.90
2018-05-04T00:08:37.280Z,8.10
2018-05-04T00:11:05.378Z,5.37
2018-05-04T00:13:33.505Z,6.90
2018-05-04T00:16:01.639Z,9.63
2018-05-04T00:18:29.767Z,7.13
2018-05-04T00:20:57.880Z,8.37
2018-05-04T00:23:26.021Z,10.50
2018-05-04T00:25:54.154Z,7.67
2018-05-04T00:28:22.262Z,13.37
2018-05-04T00:30:50.389Z,9.53
2018-05-04T00:33:18.537Z,11.13
2018-05-04T00:35:46.646Z,7.17
2018-05-04T00:38:14.769Z,11.40
2018-05-04T00:40:42.908Z,9.40
2018-05-04T00:43:11.022Z,12.37
2018-05-04T00:45:39.145Z,7.63
2018-05-04T00:48:07.279Z,8.83
2018-05-04T00:50:35.417Z,11.90
2018-05-04T00:53:03.559Z,12.47
2018-05-04T00:55:31.677Z,8.17
2018-05-04T00:57:59.790Z,9.13
2018-05-04T01:00:27.891Z,9.53
2018-05-04T01:02:56.011Z,9.17
2018-05-04T01:05:24.345Z,8.93
2018-05-04T01:07:52.487Z,8.47
2018-05-04T01:10:20.604Z,11.13
2018-05-04T01:12:48.717Z,9.97
2018-05-04T01:15:16.841Z,9.67
2018-05-04T01:17:44.954Z,8.93
2018-05-04T01:20:13.092Z,11.93
2018-05-04T01:22:41.190Z,12.93
2018-05-04T01:25:09.309Z,9.37
2018-05-04T01:27:37.473Z,10.30
2018-05-04T01:30:05.595Z,10.87
2018-05-04T01:32:33.719Z,11.73
2018-05-04T01:35:01.854Z,12.47
2018-05-04T01:37:29.969Z,9.73
2018-05-04T01:39:58.095Z,14.20
2018-05-04T01:42:26.225Z,11.67
2018-05-04T01:44:54.359Z,9.90
2018-05-04T01:47:22.477Z,14.13
2018-05-04T01:49:50.599Z,11.93
2018-05-04T01:52:18.707Z,10.17
2018-05-04T01:54:46.837Z,11.07
2018-05-04T01:57:14.966Z,10.70
2018-05-04T01:59:43.092Z,13.43
2018-05-04T02:02:11.216Z,12.17
2018-05-04T02:04:39.359Z,11.17
2018-05-04T02:07:07.459Z,14.37
2018-05-04T02:09:35.566Z,15.03
2018-05-04T02:12:03.674Z,9.80
2018-05-04T02:14:31.823Z,13.43
2018-05-04T02:16:59.941Z,12.60
2018-05-04T02:19:28.051Z,14.13
2018-05-04T02:21:56.181Z,11.43
2018-05-04T02:24:24.298Z,15.10
2018-05-04T02:26:52.420Z,12.30
2018-05-04T02:29:20.545Z,10.20
2018-05-04T02:31:48.736Z,12.83
2018-05-04T02:34:16.861Z,14.00
2018-05-04T02:36:45.035Z,11.70
2018-05-04T02:39:13.157Z,12.43
2018-05-04T02:41:41.288Z,13.87
2018-05-04T02:44:09.432Z,13.23
2018-05-04T02:46:37.545Z,13.70
2018-05-04T02:49:05.659Z,13.20
2018-05-04T02:51:33.789Z,12.47
2018-05-04T02:54:01.909Z,13.77
2018-05-04T02:56:30.015Z,11.70
2018-05-04T02:58:58.147Z,14.00
2018-05-04T03:01:26.265Z,14.03
2018-05-04T03:03:54.397Z,14.10
2018-05-04T03:06:22.499Z,12.00
2018-05-04T03:08:50.638Z,18.03
2018-05-04T03:11:18.758Z,14.67
2018-05-04T03:13:46.859Z,12.70
2018-05-04T03:16:14.978Z,13.47
2018-05-04T03:18:43.121Z,15.73
2018-05-04T03:21:11.241Z,14.47
2018-05-04T03:23:39.339Z,13.87
2018-05-04T03:26:07.501Z,13.07
2018-05-04T03:28:35.634Z,14.00
2018-05-04T03:31:03.768Z,16.60
2018-05-04T03:33:31.899Z,12.50
2018-05-04T03:36:00.039Z,15.17
2018-05-04T03:38:28.136Z,15.10
2018-05-04T03:40:56.325Z,14.43
2018-05-04T03:43:24.441Z,16.93
2018-05-04T03:45:52.565Z,13.83
2018-05-04T03:48:21.521Z,16.30
2018-05-04T03:50:49.700Z,14.53
2018-05-04T03:53:17.821Z,14.50
2018-05-04T03:55:46.196Z,16.50
2018-05-04T03:58:26.000Z,15.97
2018-05-04T04:01:06.099Z,18.77
2018-05-04T04:03:46.014Z,13.57
2018-05-04T04:06:14.130Z,14.70
2018-05-04T04:08:42.272Z,13.80
2018-05-04T04:11:10.404Z,16.90
2018-05-04T04:13:38.534Z,14.87
2018-05-04T04:16:06.672Z,15.97
2018-05-04T04:18:34.829Z,15.20
2018-05-04T04:21:02.952Z,19.20
2018-05-04T04:23:31.385Z,16.80
2018-05-04T04:25:59.531Z,17.00
2018-05-04T04:28:27.683Z,15.47
2018-05-04T04:30:55.801Z,15.20
2018-05-04T04:33:23.910Z,17.77
2018-05-04T04:35:52.153Z,15.27
2018-05-04T04:38:20.367Z,16.67
2018-05-04T04:40:48.493Z,14.97
2018-05-04T04:43:16.615Z,19.07
2018-05-04T04:45:44.741Z,12.60
2018-05-04T04:48:12.861Z,15.43
2018-05-04T04:50:41.019Z,14.07
2018-05-04T04:53:09.129Z,16.47
2018-05-04T04:55:37.247Z,17.50
2018-05-04T04:58:05.407Z,14.40
2018-05-04T05:00:33.937Z,15.80
2018-05-04T05:03:05.763Z,18.80
2018-05-04T05:05:33.890Z,15.97
2018-05-04T05:08:02.014Z,16.27
2018-05-04T05:10:30.136Z,16.43
2018-05-04T05:12:58.504Z,18.37
2018-05-04T05:15:26.647Z,20.73
2018-05-04T05:17:54.765Z,17.77
2018-05-04T05:20:22.904Z,19.13
2018-05-04T05:22:51.047Z,19.70
2018-05-04T05:25:19.191Z,19.37
2018-05-04T05:27:47.319Z,17.57
2018-05-04T05:30:15.445Z,19.33
2018-05-04T05:32:43.559Z,18.13
2018-05-04T05:35:11.694Z,15.37
2018-05-04T05:37:39.815Z,17.03
2018-05-04T05:40:07.945Z,17.10
2018-05-04T05:42:36.057Z,17.17
2018-05-04T05:45:04.189Z,19.30
2018-05-04T05:47:32.314Z,21.97
2018-05-04T05:50:00.461Z,21.37
2018-05-04T05:52:28.571Z,18.53
2018-05-04T05:54:56.699Z,23.10
2018-05-04T05:57:24.818Z,20.03
2018-05-04T05:59:52.946Z,16.43
2018-05-04T06:02:21.139Z,19.30
2018-05-04T06:04:49.359Z,21.10
2018-05-04T06:07:17.575Z,23.87
2018-05-04T06:09:45.742Z,17.57
2018-05-04T06:12:13.903Z,18.80
2018-05-04T06:14:42.031Z,19.60
2018-05-04T06:17:10.152Z,18.67
2018-05-04T06:19:38.317Z,17.90
2018-05-04T06:22:06.432Z,26.27
2018-05-04T06:24:34.543Z,19.23
2018-05-04T06:27:02.692Z,22.00
2018-05-04T06:29:30.801Z,15.77
2018-05-04T06:31:58.930Z,20.30
2018-05-04T06:34:27.051Z,21.27
2018-05-04T06:36:55.237Z,20.90
2018-05-04T06:39:23.367Z,19.67
2018-05-04T06:41:51.497Z,20.23
2018-05-04T06:44:19.615Z,20.63
2018-05-04T06:46:47.727Z,20.43
2018-05-04T06:49:16.014Z,18.23
2018-05-04T06:51:44.200Z,20.17
2018-05-04T06:54:12.373Z,17.70
2018-05-04T06:56:40.576Z,17.17
2018-05-04T06:59:08.757Z,22.90
2018-05-04T07:01:36.885Z,19.80
2018-05-04T07:04:05.029Z,17.60
2018-05-04T07:06:33.163Z,19.60
2018-05-04T07:09:01.281Z,20.37
2018-05-04T07:11:29.613Z,16.37
2018-05-04T07:13:57.759Z,19.90
2018-05-04T07:16:25.884Z,19.40
2018-05-04T07:18:54.023Z,19.33
2018-05-04T07:21:22.148Z,19.03
2018-05-04T07:23:50.272Z,16.57
2018-05-04T07:26:18.433Z,20.23
2018-05-04T07:28:46.536Z,17.27
2018-05-04T07:31:14.650Z,14.73
2018-05-04T07:33:42.777Z,17.63
2018-05-04T07:36:10.905Z,19.47
2018-05-04T07:38:39.073Z,16.07
2018-05-04T07:41:07.492Z,14.20
2018-05-04T07:43:35.596Z,15.20
2018-05-04T07:46:03.710Z,12.40
2018-05-04T07:48:31.869Z,13.87
2018-05-04T07:50:59.964Z,16.37
2018-05-04T07:53:28.076Z,15.10
2018-05-04T07:55:56.208Z,13.47
2018-05-04T07:58:24.328Z,13.17
2018-05-04T08:00:52.457Z,13.57
2018-05-04T08:03:20.607Z,19.63
2018-05-04T08:05:48.716Z,12.03
2018-05-04T08:08:16.818Z,13.17
2018-05-04T08:10:44.982Z,11.87
2018-05-04T08:13:13.094Z,13.07
2018-05-04T08:15:41.257Z,11.83
2018-05-04T08:18:09.393Z,10.60
2018-05-04T08:20:37.513Z,13.17
2018-05-04T08:23:05.629Z,13.40
2018-05-04T08:25:33.782Z,12.93
2018-05-04T08:28:01.910Z,14.20
2018-05-04T08:30:30.025Z,13.80
2018-05-04T08:32:58.162Z,13.47
2018-05-04T08:35:26.295Z,14.33
2018-05-04T08:37:54.413Z,11.83
2018-05-04T08:40:22.549Z,13.90
2018-05-04T08:42:50.745Z,11.57
2018-05-04T08:45:18.805Z,12.33
2018-05-04T08:47:46.930Z,13.90
2018-05-04T08:50:15.053Z,9.70
2018-05-04T08:52:43.147Z,9.97
2018-05-04T08:55:15.435Z,13.73
2018-05-04T08:57:43.547Z,12.43
2018-05-04T09:00:11.649Z,11.80
2018-05-04T09:02:39.787Z,10.43
2018-05-04T09:05:08.159Z,10.17
2018-05-04T09:07:36.164Z,9.43
2018-05-04T09:10:04.282Z,10.03
2018-05-04T09:12:32.396Z,7.03
2018-05-04T09:15:00.544Z,10.80
2018-05-04T09:17:28.719Z,11.53
2018-05-04T09:19:56.833Z,11.03
2018-05-04T09:22:24.934Z,9.67
2018-05-04T09:24:53.054Z,12.13
2018-05-04T09:27:21.157Z,12.60
2018-05-04T09:29:49.281Z,7.47
2018-05-04T09:32:17.413Z,8.17
2018-05-04T09:34:45.533Z,11.33
2018-05-04T09:37:13.685Z,9.57
2018-05-04T09:39:45.427Z,7.83
2018-05-04T09:42:13.538Z,14.23
2018-05-04T09:44:41.639Z,7.80
2018-05-04T09:47:09.769Z,7.47
2018-05-04T09:49:37.909Z,12.40
2018-05-04T09:52:06.039Z,12.17
2018-05-04T09:54:34.155Z,7.60
2018-05-04T09:57:02.254Z,10.03
2018-05-04T09:59:30.376Z,7.30
2018-05-04T10:01:58.558Z,6.83
2018-05-04T10:04:26.700Z,8.77
2018-05-04T10:06:54.782Z,8.63
2018-05-04T10:09:22.921Z,7.90
2018-05-04T10:11:51.033Z,8.33
2018-05-04T10:14:19.127Z,9.47
2018-05-04T10:16:47.282Z,9.87
2018-05-04T10:19:15.391Z,14.40
2018-05-04T10:21:43.495Z,7.30
2018-05-04T10:24:11.816Z,8.93
2018-05-04T10:26:39.943Z,10.83
2018-05-04T10:29:08.063Z,8.13
2018-05-04T10:31:36.162Z,9.50
2018-05-04T10:34:04.304Z,10.03
2018-05-04T10:36:32.402Z,8.10
2018-05-04T10:39:00.644Z,10.20
2018-05-04T10:41:28.677Z,8.87
2018-05-04T10:43:56.779Z,9.43
2018-05-04T10:46:24.932Z,10.37
2018-05-04T10:48:53.043Z,7.33
2018-05-04T10:51:21.175Z,11.60
2018-05-04T10:53:49.298Z,7.43
2018-05-04T10:56:17.413Z,8.23
2018-05-04T10:58:45.548Z,7.53
2018-05-04T11:01:13.674Z,8.53
2018-05-04T11:03:41.820Z,11.57
2018-05-04T11:06:09.954Z,8.23
2018-05-04T11:08:38.090Z,8.47
2018-05-04T11:11:06.216Z,8.83
2018-05-04T11:13:34.333Z,8.50
2018-05-04T11:16:02.454Z,10.57
2018-05-04T11:18:30.592Z,7.63
2018-05-04T11:20:58.696Z,6.87
2018-05-04T11:23:26.839Z,10.00
2018-05-04T11:25:54.973Z,9.80
2018-05-04T11:28:23.085Z,10.33
2018-05-04T11:30:51.214Z,10.37
2018-05-04T11:33:19.298Z,8.30
2018-05-04T11:35:47.404Z,9.60
2018-05-04T11:38:15.525Z,10.20
2018-05-04T11:40:43.664Z,11.37
2018-05-04T11:43:11.833Z,9.20
2018-05-04T11:45:39.962Z,13.30
2018-05-04T11:48:08.101Z,7.97
2018-05-04T11:50:36.226Z,8.27
2018-05-04T11:53:04.353Z,12.10
2018-05-04T11:55:32.483Z,11.00
2018-05-04T11:58:00.612Z,8.73
2018-05-04T12:00:28.734Z,7.93
2018-05-04T12:02:56.862Z,10.90
2018-05-04T12:05:25.033Z,9.47
2018-05-04T12:07:53.192Z,11.97
2018-05-04T12:10:21.305Z,7.33
2018-05-04T12:12:49.417Z,9.47
2018-05-04T12:15:17.548Z,9.73
2018-05-04T12:17:45.700Z,8.60
2018-05-04T12:20:13.826Z,10.53
2018-05-04T12:22:41.972Z,10.93
2018-05-04T12:25:10.115Z,10.47
2018-05-04T12:27:38.273Z,7.97
2018-05-04T12:30:06.456Z,7.30
2018-05-04T12:32:34.591Z,7.83
2018-05-04T12:35:02.850Z,9.30
2018-05-04T12:37:30.986Z,8.47
2018-05-04T12:39:59.090Z,9.07
2018-05-04T12:42:27.232Z,12.20
2018-05-04T12:44:55.360Z,8.40
2018-05-04T12:47:23.493Z,7.83
2018-05-04T12:49:51.613Z,10.83
2018-05-04T12:52:19.738Z,10.23
2018-05-04T12:54:47.871Z,9.77
2018-05-04T12:57:15.989Z,9.37
2018-05-04T12:59:44.113Z,9.17
2018-05-04T13:02:12.247Z,10.07
2018-05-04T13:04:40.370Z,9.20
2018-05-04T13:07:08.494Z,9.73
2018-05-04T13:09:36.624Z,8.30
2018-05-04T13:12:04.764Z,7.27
2018-05-04T13:14:32.871Z,9.60
2018-05-04T13:17:00.993Z,6.83
2018-05-04T13:19:29.109Z,9.87
2018-05-04T13:21:57.231Z,10.83
2018-05-04T13:24:27.703Z,14.10
2018-05-04T13:26:55.828Z,8.97
2018-05-04T13:29:24.012Z,5.17
2018-05-04T13:31:52.074Z,7.23
2018-05-04T13:34:20.203Z,7.20
2018-05-04T13:36:48.333Z,10.67
2018-05-04T13:39:16.434Z,6.67
2018-05-04T13:41:44.536Z,9.93
2018-05-04T13:44:12.665Z,7.30
2018-05-04T13:46:40.769Z,7.93
2018-05-04T13:49:08.991Z,10.53
2018-05-04T13:51:37.212Z,9.27
2018-05-04T13:54:05.257Z,7.40
2018-05-04T13:56:33.378Z,8.20
2018-05-04T13:59:01.540Z,11.73
2018-05-04T14:01:29.676Z,9.00
2018-05-04T14:03:57.895Z,8.73
2018-05-04T14:06:26.312Z,8.57
2018-05-04T14:08:54.440Z,8.80
2018-05-04T14:11:22.567Z,7.20
2018-05-04T14:13:50.686Z,10.17
2018-05-04T14:16:18.932Z,11.03
2018-05-04T14:18:47.142Z,7.07
2018-05-04T14:21:15.379Z,10.23
2018-05-04T14:23:43.480Z,8.40
2018-05-04T14:26:11.603Z,10.03
2018-05-04T14:28:39.759Z,10.30
2018-05-04T14:31:07.969Z,5.80
2018-05-04T14:33:36.073Z,7.93
2018-05-04T14:36:04.421Z,10.50
2018-05-04T14:38:32.552Z,5.87
2018-05-04T14:41:00.650Z,6.50
2018-05-04T14:43:28.842Z,8.40
2018-05-04T14:46:00.146Z,7.60
2018-05-04T14:48:28.320Z,6.33
2018-05-04T14:51:00.264Z,9.83
2018-05-04T14:53:28.448Z,8.07
2018-05-04T14:55:56.595Z,8.80
2018-05-04T14:58:24.945Z,7.73
2018-05-04T15:00:53.050Z,6.40
2018-05-04T15:03:21.160Z,9.23
2018-05-04T15:05:49.310Z,8.50
2018-05-04T15:08:17.420Z,8.40
2018-05-04T15:10:45.582Z,9.13
2018-05-04T15:13:13.717Z,9.17
2018-05-04T15:15:41.852Z,9.40
2018-05-04T15:18:09.981Z,7.47
2018-05-04T15:20:38.309Z,8.47
2018-05-04T15:23:06.438Z,10.37
2018-05-04T15:25:34.557Z,10.47
2018-05-04T15:28:02.696Z,11.87
2018-05-04T15:30:30.794Z,6.80
2018-05-04T15:32:58.899Z,6.67
2018-05-04T15:35:27.007Z,9.47
2018-05-04T15:37:55.124Z,10.13
2018-05-04T15:40:23.311Z,10.23
2018-05-04T15:42:51.401Z,9.43
2018-05-04T15:45:19.535Z,10.57
2018-05-04T15:47:47.645Z,8.97
2018-05-04T15:50:21.632Z,8.23
2018-05-04T15:52:49.730Z,6.83
2018-05-04T15:55:17.853Z,8.83
2018-05-04T15:57:46.061Z,10.17
2018-05-04T16:00:14.183Z,8.53
2018-05-04T16:02:42.323Z,10.97
2018-05-04T16:05:10.474Z,6.70
2018-05-04T16:07:38.580Z,13.10
2018-05-04T16:10:06.697Z,11.27
2018-05-04T16:12:34.824Z,13.63
2018-05-04T16:15:02.967Z,10.17
2018-05-04T16:17:31.170Z,7.17
2018-05-04T16:19:59.294Z,9.80
2018-05-04T16:22:27.457Z,9.10
2018-05-04T16:24:55.568Z,7.80
2018-05-04T16:27:23.695Z,10.17
2018-05-04T16:29:51.807Z,13.23
2018-05-04T16:32:19.925Z,8.10
2018-05-04T16:34:48.076Z,9.07
2018-05-04T16:37:16.195Z,8.73
2018-05-04T16:39:44.336Z,10.77
2018-05-04T16:42:12.443Z,10.60
2018-05-04T16:44:40.582Z,10.77
2018-05-04T16:47:14.241Z,8.17
2018-05-04T16:49:43.262Z,9.13
2018-05-04T16:52:11.379Z,9.73
2018-05-04T16:54:39.526Z,10.43
2018-05-04T16:57:07.655Z,10.27
2018-05-04T16:59:35.788Z,9.27
2018-05-04T17:02:03.940Z,11.23
2018-05-04T17:04:32.065Z,9.93
2018-05-04T17:07:00.183Z,11.00
2018-05-04T17:09:28.324Z,9.00
2018-05-04T17:11:56.449Z,10.37
2018-05-04T17:14:24.565Z,8.43
2018-05-04T17:16:52.749Z,8.57
2018-05-04T17:19:21.330Z,6.77
2018-05-04T17:21:49.435Z,11.87
2018-05-04T17:24:17.613Z,11.60
2018-05-04T17:26:45.825Z,8.80
2018-05-04T17:29:14.056Z,12.70
2018-05-04T17:31:42.333Z,8.87
2018-05-04T17:34:10.482Z,9.20
2018-05-04T17:36:38.649Z,11.57
2018-05-04T17:39:07.019Z,11.57
2018-05-04T17:41:35.256Z,7.87
2018-05-04T17:44:03.394Z,9.23
2018-05-04T17:46:31.510Z,12.00
2018-05-04T17:48:59.637Z,11.23
2018-05-04T17:51:27.739Z,11.40
2018-05-04T17:53:55.893Z,9.73
2018-05-04T17:56:24.011Z,10.57
2018-05-04T17:58:52.130Z,7.93
2018-05-04T18:01:20.728Z,8.83
2018-05-04T18:03:48.851Z,9.80
2018-05-04T18:06:16.950Z,10.70
2018-05-04T18:08:45.097Z,14.63
2018-05-04T18:11:13.219Z,10.73
2018-05-04T18:13:41.347Z,9.17
2018-05-04T18:16:09.485Z,10.83
2018-05-04T18:18:37.601Z,9.33
2018-05-04T18:21:05.728Z,8.97
2018-05-04T18:23:33.955Z,9.00
2018-05-04T18:26:02.059Z,10.73
2018-05-04T18:28:30.197Z,9.80
2018-05-04T18:30:58.323Z,8.17
2018-05-04T18:33:26.441Z,7.83
2018-05-04T18:35:54.538Z,8.77
2018-05-04T18:38:22.708Z,8.70
2018-05-04T18:40:50.782Z,9.43
2018-05-04T18:43:18.905Z,8.80
2018-05-04T18:45:47.046Z,9.97
2018-05-04T18:48:15.248Z,13.23
2018-05-04T18:50:43.280Z,8.23
2018-05-04T18:53:11.421Z,13.57
2018-05-04T18:55:39.566Z,9.60
2018-05-04T18:58:07.678Z,8.63
2018-05-04T19:00:35.814Z,6.70
2018-05-04T19:03:09.657Z,9.60
2018-05-04T19:05:37.771Z,9.83
2018-05-04T19:08:09.403Z,8.30
2018-05-04T19:10:37.434Z,9.30
2018-05-04T19:13:05.572Z,8.47
2018-05-04T19:15:33.689Z,10.67
2018-05-04T19:18:01.802Z,10.93
2018-05-04T19:20:30.001Z,9.60
2018-05-04T19:22:58.079Z,10.90
2018-05-04T19:25:26.212Z,11.07
2018-05-04T19:27:54.361Z,11.40
2018-05-04T19:30:22.458Z,8.80
2018-05-04T19:32:50.569Z,9.93
2018-05-04T19:35:18.705Z,9.83
2018-05-04T19:37:46.806Z,10.57
2018-05-04T19:40:14.920Z,12.63
2018-05-04T19:42:43.042Z,10.00
2018-05-04T19:45:11.152Z,10.90
2018-05-04T19:47:39.296Z,8.50
2018-05-04T19:50:07.413Z,7.07
2018-05-04T19:52:35.574Z,7.03
2018-05-04T19:55:03.652Z,9.53
2018-05-04T19:57:31.820Z,8.97
2018-05-04T19:59:59.919Z,6.70
2018-05-04T20:02:28.014Z,8.37
2018-05-04T20:04:56.145Z,9.13
2018-05-04T20:07:24.266Z,8.00
2018-05-04T20:09:52.377Z,8.77
2018-05-04T20:12:20.501Z,10.10
2018-05-04T20:14:48.621Z,7.37
2018-05-04T20:17:16.791Z,10.30
2018-05-04T20:19:44.928Z,13.27
2018-05-04T20:22:13.041Z,7.03
2018-05-04T20:24:41.180Z,9.03
2018-05-04T20:27:09.297Z,9.27
2018-05-04T20:29:37.432Z,7.50
2018-05-04T20:32:05.559Z,8.63
2018-05-04T20:34:33.699Z,9.97
2018-05-04T20:37:01.837Z,12.43
2018-05-04T20:39:29.953Z,7.63
2018-05-04T20:41:58.108Z,8.30
2018-05-04T20:44:26.248Z,11.57
2018-05-04T20:46:54.360Z,9.67
2018-05-04T20:49:22.474Z,7.23
2018-05-04T20:51:50.601Z,8.30
2018-05-04T20:54:18.740Z,11.00
2018-05-04T20:56:46.869Z,10.33
2018-05-04T20:59:14.988Z,7.50
2018-05-04T21:01:43.233Z,9.90
2018-05-04T21:04:11.361Z,7.07
2018-05-04T21:06:39.460Z,8.63
2018-05-04T21:09:11.408Z,10.30
2018-05-04T21:11:39.530Z,14.23
2018-05-04T21:14:07.663Z,14.50
2018-05-04T21:16:35.758Z,10.30
2018-05-04T21:19:03.907Z,7.97
2018-05-04T21:21:32.004Z,9.93
2018-05-04T21:24:00.117Z,8.80
2018-05-04T21:26:32.019Z,9.30
2018-05-04T21:29:00.118Z,9.50
2018-05-04T21:31:28.399Z,10.67
2018-05-04T21:33:57.649Z,9.57
2018-05-04T21:36:25.765Z,9.37
2018-05-04T21:38:53.940Z,8.80
2018-05-04T21:41:22.191Z,9.67
2018-05-04T21:43:50.343Z,12.07
2018-05-04T21:46:18.483Z,11.43
2018-05-04T21:48:46.751Z,10.80
2018-05-04T21:51:14.880Z,8.37
2018-05-04T21:53:43.021Z,10.23
2018-05-04T21:56:11.147Z,9.83
2018-05-04T21:58:39.339Z,9.83
2018-05-04T22:01:07.501Z,10.40
2018-05-04T22:03:36.573Z,9.03
2018-05-04T22:06:04.697Z,7.83
2018-05-04T22:08:32.832Z,9.57
2018-05-04T22:11:00.987Z,8.87
2018-05-04T22:13:29.110Z,9.00
2018-05-04T22:15:57.344Z,11.37
2018-05-04T22:18:25.498Z,9.67
2018-05-04T22:20:53.612Z,9.53
2018-05-04T22:23:21.725Z,11.83
2018-05-04T22:25:49.868Z,11.70
2018-05-04T22:28:17.975Z,8.57
2018-05-04T22:30:46.093Z,10.90
2018-05-04T22:33:14.207Z,8.20
2018-05-04T22:35:42.329Z,10.20
2018-05-04T22:38:10.449Z,8.80
2018-05-04T22:40:38.584Z,10.53
2018-05-04T22:43:10.311Z,10.70
2018-05-04T22:45:38.478Z,12.40
2018-05-04T22:48:06.645Z,15.30
2018-05-04T22:50:34.783Z,14.03
2018-05-04T22:53:02.927Z,11.13
2018-05-04T22:55:31.072Z,10.47
2018-05-04T22:57:59.199Z,10.87
2018-05-04T23:00:27.326Z,9.10
2018-05-04T23:02:55.446Z,8.03
2018-05-04T23:05:23.566Z,12.73
2018-05-04T23:07:51.709Z,9.73
2018-05-04T23:10:19.872Z,11.07
2018-05-04T23:12:47.992Z,10.63
2018-05-04T23:15:16.178Z,10.40
2018-05-04T23:17:44.304Z,13.43
2018-05-04T23:20:12.411Z,12.23
2018-05-04T23:22:40.576Z,11.33
2018-05-04T23:25:08.723Z,10.50
2018-05-04T23:27:36.851Z,17.10
2018-05-04T23:30:04.977Z,12.17
2018-05-04T23:32:33.109Z,10.20
2018-05-04T23:35:01.243Z,13.33
2018-05-04T23:37:29.351Z,13.93
2018-05-04T23:39:57.507Z,13.27
2018-05-04T23:42:25.625Z,11.63
2018-05-04T23:44:53.748Z,11.87
2018-05-04T23:47:21.874Z,13.03
2018-05-04T23:49:50.004Z,15.63
2018-05-04T23:52:18.121Z,11.70
2018-05-04T23:54:46.260Z,12.07
2018-05-04T23:57:14.399Z,13.67
2018-05-04T23:59:42.515Z,13.97
